sensor_id;sensor_type;location;lat;lon;timestamp;P1;durP1;ratioP1;P2;durP2;ratioP2
46925;SDS011;32667;48.248;-1.700;2023-02-15T00:01:05;0.30;;;0.30;;
46925;SDS011;32667;48.248;-1.700;2023-02-15T00:03:35;0.30;;;0.30;;
46925;SDS011;32667;48.248;-1.700;2023-02-15T00:06:01;0.30;;;0.30;;
46925;SDS011;32667;48.248;-1.700;2023-02-15T00:08:30;0.30;;;0.30;;
46925;SDS011;32667;48.248;-1.700;2023-02-15T00:11:03;0.30;;;0.30;;
46925;SDS011;32667;48.248;-1.700;2023-02-15T00:13:35;0.30;;;0.30;;
46925;SDS011;32667;48.248;-1.700;2023-02-15T00:16:05;0.28;;;0.28;;
46925;SDS011;32667;48.248;-1.700;2023-02-15T00:18:33;0.30;;;0.22;;
46925;SDS011;32667;48.248;-1.700;2023-02-15T00:21:02;0.28;;;0.28;;
46925;SDS011;32667;48.248;-1.700;2023-02-15T00:23:29;0.30;;;0.30;;
46925;SDS011;32667;48.248;-1.700;2023-02-15T00:26:05;0.20;;;0.20;;
46925;SDS011;32667;48.248;-1.700;2023-02-15T00:28:35;0.30;;;0.30;;
46925;SDS011;32667;48.248;-1.700;2023-02-15T00:31:10;0.20;;;0.20;;
46925;SDS011;32667;48.248;-1.700;2023-02-15T00:33:37;0.30;;;0.30;;
46925;SDS011;32667;48.248;-1.700;2023-02-15T00:36:05;0.20;;;0.20;;
46925;SDS011;32667;48.248;-1.700;2023-02-15T00:38:32;0.30;;;0.30;;
46925;SDS011;32667;48.248;-1.700;2023-02-15T00:40:59;0.30;;;0.30;;
46925;SDS011;32667;48.248;-1.700;2023-02-15T00:43:30;0.30;;;0.30;;
46925;SDS011;32667;48.248;-1.700;2023-02-15T00:45:59;0.30;;;0.30;;
46925;SDS011;32667;48.248;-1.700;2023-02-15T00:48:25;0.30;;;0.30;;
46925;SDS011;32667;48.248;-1.700;2023-02-15T00:50:52;0.30;;;0.30;;
46925;SDS011;32667;48.248;-1.700;2023-02-15T00:53:23;0.30;;;0.30;;
46925;SDS011;32667;48.248;-1.700;2023-02-15T00:55:52;0.30;;;0.30;;
46925;SDS011;32667;48.248;-1.700;2023-02-15T00:58:20;0.25;;;0.25;;
46925;SDS011;32667;48.248;-1.700;2023-02-15T01:00:46;0.30;;;0.30;;
46925;SDS011;32667;48.248;-1.700;2023-02-15T01:03:13;0.30;;;0.30;;
46925;SDS011;32667;48.248;-1.700;2023-02-15T01:05:41;0.30;;;0.30;;
46925;SDS011;32667;48.248;-1.700;2023-02-15T01:08:07;0.30;;;0.30;;
46925;SDS011;32667;48.248;-1.700;2023-02-15T01:10:33;0.30;;;0.30;;
46925;SDS011;32667;48.248;-1.700;2023-02-15T01:13:00;0.30;;;0.30;;
46925;SDS011;32667;48.248;-1.700;2023-02-15T01:15:29;0.20;;;0.20;;
46925;SDS011;32667;48.248;-1.700;2023-02-15T01:17:55;0.20;;;0.20;;
46925;SDS011;32667;48.248;-1.700;2023-02-15T01:20:24;0.30;;;0.30;;
46925;SDS011;32667;48.248;-1.700;2023-02-15T01:22:51;0.20;;;0.20;;
46925;SDS011;32667;48.248;-1.700;2023-02-15T01:25:19;0.30;;;0.30;;
46925;SDS011;32667;48.248;-1.700;2023-02-15T01:27:50;0.30;;;0.30;;
46925;SDS011;32667;48.248;-1.700;2023-02-15T01:30:16;0.20;;;0.20;;
46925;SDS011;32667;48.248;-1.700;2023-02-15T01:32:45;0.30;;;0.30;;
46925;SDS011;32667;48.248;-1.700;2023-02-15T01:35:13;0.30;;;0.30;;
46925;SDS011;32667;48.248;-1.700;2023-02-15T01:37:39;0.30;;;0.30;;
46925;SDS011;32667;48.248;-1.700;2023-02-15T01:40:08;0.30;;;0.30;;
46925;SDS011;32667;48.248;-1.700;2023-02-15T01:42:38;0.30;;;0.30;;
46925;SDS011;32667;48.248;-1.700;2023-02-15T01:45:26;0.20;;;0.20;;
46925;SDS011;32667;48.248;-1.700;2023-02-15T01:50:58;0.30;;;0.30;;
46925;SDS011;32667;48.248;-1.700;2023-02-15T01:53:30;0.25;;;0.25;;
46925;SDS011;32667;48.248;-1.700;2023-02-15T01:56:23;0.30;;;0.30;;
46925;SDS011;32667;48.248;-1.700;2023-02-15T01:58:53;0.30;;;0.30;;
46925;SDS011;32667;48.248;-1.700;2023-02-15T02:01:22;0.30;;;0.30;;
46925;SDS011;32667;48.248;-1.700;2023-02-15T02:06:39;0.30;;;0.30;;
46925;SDS011;32667;48.248;-1.700;2023-02-15T02:09:06;0.20;;;0.20;;
46925;SDS011;32667;48.248;-1.700;2023-02-15T02:11:32;0.20;;;0.20;;
46925;SDS011;32667;48.248;-1.700;2023-02-15T02:13:59;0.30;;;0.30;;
46925;SDS011;32667;48.248;-1.700;2023-02-15T02:16:27;0.25;;;0.25;;
46925;SDS011;32667;48.248;-1.700;2023-02-15T02:27:37;0.25;;;0.25;;
46925;SDS011;32667;48.248;-1.700;2023-02-15T02:35:45;0.20;;;0.20;;
46925;SDS011;32667;48.248;-1.700;2023-02-15T02:41:06;0.20;;;0.20;;
46925;SDS011;32667;48.248;-1.700;2023-02-15T02:47:22;0.30;;;0.30;;
46925;SDS011;32667;48.248;-1.700;2023-02-15T02:50:00;0.20;;;0.20;;
46925;SDS011;32667;48.248;-1.700;2023-02-15T02:52:44;0.30;;;0.30;;
46925;SDS011;32667;48.248;-1.700;2023-02-15T02:57:57;0.30;;;0.30;;
46925;SDS011;32667;48.248;-1.700;2023-02-15T03:00:32;0.30;;;0.28;;
46925;SDS011;32667;48.248;-1.700;2023-02-15T03:03:06;0.25;;;0.25;;
46925;SDS011;32667;48.248;-1.700;2023-02-15T03:05:38;0.40;;;0.30;;
46925;SDS011;32667;48.248;-1.700;2023-02-15T03:08:09;0.30;;;0.30;;
46925;SDS011;32667;48.248;-1.700;2023-02-15T03:10:39;0.30;;;0.30;;
46925;SDS011;32667;48.248;-1.700;2023-02-15T03:13:06;0.30;;;0.30;;
46925;SDS011;32667;48.248;-1.700;2023-02-15T03:15:34;0.30;;;0.30;;
46925;SDS011;32667;48.248;-1.700;2023-02-15T03:18:28;0.30;;;0.30;;
46925;SDS011;32667;48.248;-1.700;2023-02-15T03:20:59;0.20;;;0.20;;
46925;SDS011;32667;48.248;-1.700;2023-02-15T03:23:30;0.30;;;0.30;;
46925;SDS011;32667;48.248;-1.700;2023-02-15T03:26:07;0.30;;;0.30;;
46925;SDS011;32667;48.248;-1.700;2023-02-15T03:28:38;0.30;;;0.30;;
46925;SDS011;32667;48.248;-1.700;2023-02-15T03:31:09;0.30;;;0.30;;
46925;SDS011;32667;48.248;-1.700;2023-02-15T03:33:48;0.22;;;0.22;;
46925;SDS011;32667;48.248;-1.700;2023-02-15T03:36:20;0.28;;;0.28;;
46925;SDS011;32667;48.248;-1.700;2023-02-15T03:41:46;0.30;;;0.30;;
46925;SDS011;32667;48.248;-1.700;2023-02-15T03:44:24;0.40;;;0.30;;
46925;SDS011;32667;48.248;-1.700;2023-02-15T03:46:59;0.30;;;0.30;;
46925;SDS011;32667;48.248;-1.700;2023-02-15T03:49:39;0.30;;;0.30;;
46925;SDS011;32667;48.248;-1.700;2023-02-15T03:52:27;0.20;;;0.20;;
46925;SDS011;32667;48.248;-1.700;2023-02-15T03:54:57;0.30;;;0.30;;
46925;SDS011;32667;48.248;-1.700;2023-02-15T03:57:26;0.30;;;0.30;;
46925;SDS011;32667;48.248;-1.700;2023-02-15T04:00:17;0.30;;;0.30;;
46925;SDS011;32667;48.248;-1.700;2023-02-15T04:06:04;0.30;;;0.30;;
46925;SDS011;32667;48.248;-1.700;2023-02-15T04:08:32;0.30;;;0.30;;
46925;SDS011;32667;48.248;-1.700;2023-02-15T04:11:19;0.30;;;0.30;;
46925;SDS011;32667;48.248;-1.700;2023-02-15T04:13:44;0.30;;;0.30;;
46925;SDS011;32667;48.248;-1.700;2023-02-15T04:16:12;0.30;;;0.30;;
46925;SDS011;32667;48.248;-1.700;2023-02-15T04:18:40;0.30;;;0.30;;
46925;SDS011;32667;48.248;-1.700;2023-02-15T04:21:26;0.30;;;0.30;;
46925;SDS011;32667;48.248;-1.700;2023-02-15T04:24:14;0.30;;;0.30;;
46925;SDS011;32667;48.248;-1.700;2023-02-15T04:26:59;0.30;;;0.30;;
46925;SDS011;32667;48.248;-1.700;2023-02-15T04:29:28;0.28;;;0.28;;
46925;SDS011;32667;48.248;-1.700;2023-02-15T04:31:59;0.30;;;0.30;;
46925;SDS011;32667;48.248;-1.700;2023-02-15T04:34:26;0.30;;;0.30;;
46925;SDS011;32667;48.248;-1.700;2023-02-15T04:36:56;0.30;;;0.30;;
46925;SDS011;32667;48.248;-1.700;2023-02-15T04:39:33;0.30;;;0.30;;
46925;SDS011;32667;48.248;-1.700;2023-02-15T04:41:59;0.30;;;0.30;;
46925;SDS011;32667;48.248;-1.700;2023-02-15T04:44:27;0.30;;;0.30;;
46925;SDS011;32667;48.248;-1.700;2023-02-15T04:46:52;0.30;;;0.30;;
46925;SDS011;32667;48.248;-1.700;2023-02-15T04:49:20;0.30;;;0.30;;
46925;SDS011;32667;48.248;-1.700;2023-02-15T04:51:46;0.20;;;0.20;;
46925;SDS011;32667;48.248;-1.700;2023-02-15T04:54:12;0.45;;;0.30;;
46925;SDS011;32667;48.248;-1.700;2023-02-15T04:56:38;0.30;;;0.30;;
46925;SDS011;32667;48.248;-1.700;2023-02-15T04:59:04;0.30;;;0.30;;
46925;SDS011;32667;48.248;-1.700;2023-02-15T05:01:30;0.30;;;0.30;;
46925;SDS011;32667;48.248;-1.700;2023-02-15T05:03:56;0.30;;;0.30;;
46925;SDS011;32667;48.248;-1.700;2023-02-15T05:06:22;0.30;;;0.30;;
46925;SDS011;32667;48.248;-1.700;2023-02-15T05:08:48;0.30;;;0.30;;
46925;SDS011;32667;48.248;-1.700;2023-02-15T05:11:13;0.32;;;0.30;;
46925;SDS011;32667;48.248;-1.700;2023-02-15T05:13:39;0.30;;;0.30;;
46925;SDS011;32667;48.248;-1.700;2023-02-15T05:16:05;0.38;;;0.30;;
46925;SDS011;32667;48.248;-1.700;2023-02-15T05:18:30;0.28;;;0.28;;
46925;SDS011;32667;48.248;-1.700;2023-02-15T05:20:56;0.30;;;0.30;;
46925;SDS011;32667;48.248;-1.700;2023-02-15T05:23:22;0.30;;;0.30;;
46925;SDS011;32667;48.248;-1.700;2023-02-15T05:25:56;0.30;;;0.30;;
46925;SDS011;32667;48.248;-1.700;2023-02-15T05:28:41;0.35;;;0.30;;
46925;SDS011;32667;48.248;-1.700;2023-02-15T05:31:08;0.30;;;0.30;;
46925;SDS011;32667;48.248;-1.700;2023-02-15T05:33:38;0.30;;;0.30;;
46925;SDS011;32667;48.248;-1.700;2023-02-15T05:36:09;0.30;;;0.25;;
46925;SDS011;32667;48.248;-1.700;2023-02-15T05:38:36;0.22;;;0.20;;
46925;SDS011;32667;48.248;-1.700;2023-02-15T05:41:03;0.30;;;0.30;;
46925;SDS011;32667;48.248;-1.700;2023-02-15T05:43:32;0.30;;;0.30;;
46925;SDS011;32667;48.248;-1.700;2023-02-15T05:45:58;0.30;;;0.30;;
46925;SDS011;32667;48.248;-1.700;2023-02-15T05:51:06;0.40;;;0.30;;
46925;SDS011;32667;48.248;-1.700;2023-02-15T05:53:36;0.38;;;0.30;;
46925;SDS011;32667;48.248;-1.700;2023-02-15T05:56:06;0.30;;;0.30;;
46925;SDS011;32667;48.248;-1.700;2023-02-15T05:58:37;0.35;;;0.30;;
46925;SDS011;32667;48.248;-1.700;2023-02-15T06:01:11;0.30;;;0.30;;
46925;SDS011;32667;48.248;-1.700;2023-02-15T06:03:44;0.30;;;0.30;;
46925;SDS011;32667;48.248;-1.700;2023-02-15T06:06:13;0.30;;;0.30;;
46925;SDS011;32667;48.248;-1.700;2023-02-15T06:08:39;0.30;;;0.30;;
46925;SDS011;32667;48.248;-1.700;2023-02-15T06:11:05;0.30;;;0.30;;
46925;SDS011;32667;48.248;-1.700;2023-02-15T06:13:31;0.30;;;0.30;;
46925;SDS011;32667;48.248;-1.700;2023-02-15T06:15:57;0.30;;;0.30;;
46925;SDS011;32667;48.248;-1.700;2023-02-15T06:18:23;0.30;;;0.30;;
46925;SDS011;32667;48.248;-1.700;2023-02-15T06:20:58;0.20;;;0.20;;
46925;SDS011;32667;48.248;-1.700;2023-02-15T06:23:27;0.30;;;0.30;;
46925;SDS011;32667;48.248;-1.700;2023-02-15T06:25:53;0.30;;;0.30;;
46925;SDS011;32667;48.248;-1.700;2023-02-15T06:28:24;0.40;;;0.30;;
46925;SDS011;32667;48.248;-1.700;2023-02-15T06:30:54;0.30;;;0.30;;
46925;SDS011;32667;48.248;-1.700;2023-02-15T06:33:20;0.30;;;0.30;;
46925;SDS011;32667;48.248;-1.700;2023-02-15T06:35:54;0.40;;;0.30;;
46925;SDS011;32667;48.248;-1.700;2023-02-15T06:38:29;0.30;;;0.30;;
46925;SDS011;32667;48.248;-1.700;2023-02-15T06:40:57;0.30;;;0.30;;
46925;SDS011;32667;48.248;-1.700;2023-02-15T06:43:23;0.45;;;0.30;;
46925;SDS011;32667;48.248;-1.700;2023-02-15T06:45:56;0.30;;;0.30;;
46925;SDS011;32667;48.248;-1.700;2023-02-15T06:48:22;0.30;;;0.30;;
46925;SDS011;32667;48.248;-1.700;2023-02-15T06:50:53;0.32;;;0.30;;
46925;SDS011;32667;48.248;-1.700;2023-02-15T06:53:26;0.22;;;0.22;;
46925;SDS011;32667;48.248;-1.700;2023-02-15T06:56:04;0.20;;;0.20;;
46925;SDS011;32667;48.248;-1.700;2023-02-15T06:58:36;0.20;;;0.20;;
46925;SDS011;32667;48.248;-1.700;2023-02-15T07:01:13;0.38;;;0.30;;
46925;SDS011;32667;48.248;-1.700;2023-02-15T07:03:39;0.32;;;0.30;;
46925;SDS011;32667;48.248;-1.700;2023-02-15T07:06:07;0.30;;;0.30;;
46925;SDS011;32667;48.248;-1.700;2023-02-15T07:11:11;0.25;;;0.25;;
46925;SDS011;32667;48.248;-1.700;2023-02-15T07:13:55;0.30;;;0.30;;
46925;SDS011;32667;48.248;-1.700;2023-02-15T07:16:30;0.30;;;0.30;;
46925;SDS011;32667;48.248;-1.700;2023-02-15T07:19:00;0.30;;;0.30;;
46925;SDS011;32667;48.248;-1.700;2023-02-15T07:21:28;0.30;;;0.30;;
46925;SDS011;32667;48.248;-1.700;2023-02-15T07:24:12;0.30;;;0.30;;
46925;SDS011;32667;48.248;-1.700;2023-02-15T07:27:00;0.30;;;0.30;;
46925;SDS011;32667;48.248;-1.700;2023-02-15T07:29:28;0.20;;;0.20;;
46925;SDS011;32667;48.248;-1.700;2023-02-15T07:31:56;0.20;;;0.20;;
46925;SDS011;32667;48.248;-1.700;2023-02-15T07:34:31;0.30;;;0.30;;
46925;SDS011;32667;48.248;-1.700;2023-02-15T07:36:57;0.30;;;0.30;;
46925;SDS011;32667;48.248;-1.700;2023-02-15T07:39:22;0.30;;;0.30;;
46925;SDS011;32667;48.248;-1.700;2023-02-15T07:41:52;0.30;;;0.30;;
46925;SDS011;32667;48.248;-1.700;2023-02-15T07:44:31;0.30;;;0.30;;
46925;SDS011;32667;48.248;-1.700;2023-02-15T07:47:06;0.30;;;0.30;;
46925;SDS011;32667;48.248;-1.700;2023-02-15T07:49:32;0.30;;;0.30;;
46925;SDS011;32667;48.248;-1.700;2023-02-15T07:52:00;0.30;;;0.30;;
46925;SDS011;32667;48.248;-1.700;2023-02-15T07:54:27;0.30;;;0.30;;
46925;SDS011;32667;48.248;-1.700;2023-02-15T07:59:38;0.20;;;0.20;;
46925;SDS011;32667;48.248;-1.700;2023-02-15T08:02:10;0.30;;;0.30;;
46925;SDS011;32667;48.248;-1.700;2023-02-15T08:04:38;0.30;;;0.30;;
46925;SDS011;32667;48.248;-1.700;2023-02-15T08:07:06;0.30;;;0.30;;
46925;SDS011;32667;48.248;-1.700;2023-02-15T08:09:34;0.30;;;0.30;;
46925;SDS011;32667;48.248;-1.700;2023-02-15T08:11:59;0.30;;;0.30;;
46925;SDS011;32667;48.248;-1.700;2023-02-15T08:14:27;0.32;;;0.30;;
46925;SDS011;32667;48.248;-1.700;2023-02-15T08:19:30;0.30;;;0.30;;
46925;SDS011;32667;48.248;-1.700;2023-02-15T08:22:07;0.50;;;0.38;;
46925;SDS011;32667;48.248;-1.700;2023-02-15T08:24:37;0.30;;;0.30;;
46925;SDS011;32667;48.248;-1.700;2023-02-15T08:27:03;0.30;;;0.30;;
46925;SDS011;32667;48.248;-1.700;2023-02-15T08:32:38;0.32;;;0.30;;
46925;SDS011;32667;48.248;-1.700;2023-02-15T08:35:11;0.40;;;0.30;;
46925;SDS011;32667;48.248;-1.700;2023-02-15T08:37:44;0.30;;;0.30;;
46925;SDS011;32667;48.248;-1.700;2023-02-15T08:40:13;0.35;;;0.30;;
46925;SDS011;32667;48.248;-1.700;2023-02-15T08:42:38;0.30;;;0.30;;
46925;SDS011;32667;48.248;-1.700;2023-02-15T08:45:04;0.40;;;0.30;;
46925;SDS011;32667;48.248;-1.700;2023-02-15T08:47:30;0.30;;;0.30;;
46925;SDS011;32667;48.248;-1.700;2023-02-15T08:49:58;0.30;;;0.30;;
46925;SDS011;32667;48.248;-1.700;2023-02-15T08:52:26;0.28;;;0.28;;
46925;SDS011;32667;48.248;-1.700;2023-02-15T08:54:51;0.20;;;0.20;;
46925;SDS011;32667;48.248;-1.700;2023-02-15T08:57:19;0.30;;;0.30;;
46925;SDS011;32667;48.248;-1.700;2023-02-15T08:59:55;0.30;;;0.30;;
46925;SDS011;32667;48.248;-1.700;2023-02-15T09:02:22;0.35;;;0.30;;
46925;SDS011;32667;48.248;-1.700;2023-02-15T09:04:48;0.30;;;0.30;;
46925;SDS011;32667;48.248;-1.700;2023-02-15T09:07:16;0.30;;;0.30;;
46925;SDS011;32667;48.248;-1.700;2023-02-15T09:09:43;0.30;;;0.30;;
46925;SDS011;32667;48.248;-1.700;2023-02-15T09:12:13;0.30;;;0.30;;
46925;SDS011;32667;48.248;-1.700;2023-02-15T09:14:39;0.30;;;0.30;;
46925;SDS011;32667;48.248;-1.700;2023-02-15T09:17:05;0.20;;;0.20;;
46925;SDS011;32667;48.248;-1.700;2023-02-15T09:19:32;0.20;;;0.20;;
46925;SDS011;32667;48.248;-1.700;2023-02-15T09:22:03;0.30;;;0.30;;
46925;SDS011;32667;48.248;-1.700;2023-02-15T09:24:36;0.30;;;0.30;;
46925;SDS011;32667;48.248;-1.700;2023-02-15T09:27:09;0.30;;;0.30;;
46925;SDS011;32667;48.248;-1.700;2023-02-15T09:29:42;0.30;;;0.30;;
46925;SDS011;32667;48.248;-1.700;2023-02-15T09:32:15;0.20;;;0.20;;
46925;SDS011;32667;48.248;-1.700;2023-02-15T09:34:42;0.20;;;0.20;;
46925;SDS011;32667;48.248;-1.700;2023-02-15T09:37:08;0.30;;;0.30;;
46925;SDS011;32667;48.248;-1.700;2023-02-15T09:39:37;0.20;;;0.20;;
46925;SDS011;32667;48.248;-1.700;2023-02-15T09:42:15;0.30;;;0.30;;
46925;SDS011;32667;48.248;-1.700;2023-02-15T09:48:11;0.20;;;0.20;;
46925;SDS011;32667;48.248;-1.700;2023-02-15T09:50:23;0.20;;;0.20;;
46925;SDS011;32667;48.248;-1.700;2023-02-15T09:53:34;0.20;;;0.20;;
46925;SDS011;32667;48.248;-1.700;2023-02-15T10:01:40;0.25;;;0.25;;
46925;SDS011;32667;48.248;-1.700;2023-02-15T10:16:19;0.25;;;0.25;;
46925;SDS011;32667;48.248;-1.700;2023-02-15T10:21:49;0.20;;;0.20;;
46925;SDS011;32667;48.248;-1.700;2023-02-15T10:24:36;0.30;;;0.30;;
46925;SDS011;32667;48.248;-1.700;2023-02-15T10:27:37;0.30;;;0.30;;
46925;SDS011;32667;48.248;-1.700;2023-02-15T10:30:13;0.30;;;0.30;;
46925;SDS011;32667;48.248;-1.700;2023-02-15T10:33:03;0.32;;;0.30;;
46925;SDS011;32667;48.248;-1.700;2023-02-15T10:36:00;0.20;;;0.20;;
46925;SDS011;32667;48.248;-1.700;2023-02-15T10:49:46;0.20;;;0.20;;
46925;SDS011;32667;48.248;-1.700;2023-02-15T10:52:39;0.20;;;0.20;;
46925;SDS011;32667;48.248;-1.700;2023-02-15T11:06:46;0.20;;;0.20;;
46925;SDS011;32667;48.248;-1.700;2023-02-15T11:09:19;0.20;;;0.20;;
46925;SDS011;32667;48.248;-1.700;2023-02-15T11:11:51;0.20;;;0.20;;
46925;SDS011;32667;48.248;-1.700;2023-02-15T11:14:23;0.30;;;0.30;;
46925;SDS011;32667;48.248;-1.700;2023-02-15T11:16:53;0.30;;;0.30;;
46925;SDS011;32667;48.248;-1.700;2023-02-15T11:19:33;0.20;;;0.20;;
46925;SDS011;32667;48.248;-1.700;2023-02-15T11:22:06;0.20;;;0.20;;
46925;SDS011;32667;48.248;-1.700;2023-02-15T11:24:42;0.20;;;0.20;;
46925;SDS011;32667;48.248;-1.700;2023-02-15T11:27:20;0.20;;;0.20;;
46925;SDS011;32667;48.248;-1.700;2023-02-15T11:32:38;0.20;;;0.20;;
46925;SDS011;32667;48.248;-1.700;2023-02-15T11:40:36;0.20;;;0.20;;
46925;SDS011;32667;48.248;-1.700;2023-02-15T11:43:41;0.20;;;0.20;;
46925;SDS011;32667;48.248;-1.700;2023-02-15T11:46:27;0.22;;;0.22;;
46925;SDS011;32667;48.248;-1.700;2023-02-15T11:48:53;0.20;;;0.20;;
46925;SDS011;32667;48.248;-1.700;2023-02-15T11:51:23;0.20;;;0.20;;
46925;SDS011;32667;48.248;-1.700;2023-02-15T11:53:54;0.30;;;0.30;;
46925;SDS011;32667;48.248;-1.700;2023-02-15T11:56:24;0.20;;;0.20;;
46925;SDS011;32667;48.248;-1.700;2023-02-15T12:01:38;0.20;;;0.20;;
46925;SDS011;32667;48.248;-1.700;2023-02-15T12:06:51;0.20;;;0.20;;
46925;SDS011;32667;48.248;-1.700;2023-02-15T12:12:30;0.20;;;0.20;;
46925;SDS011;32667;48.248;-1.700;2023-02-15T12:15:05;0.15;;;0.15;;
46925;SDS011;32667;48.248;-1.700;2023-02-15T12:17:36;0.20;;;0.20;;
46925;SDS011;32667;48.248;-1.700;2023-02-15T12:22:45;0.20;;;0.20;;
46925;SDS011;32667;48.248;-1.700;2023-02-15T12:25:24;0.20;;;0.20;;
46925;SDS011;32667;48.248;-1.700;2023-02-15T12:28:02;0.30;;;0.30;;
46925;SDS011;32667;48.248;-1.700;2023-02-15T12:30:30;0.20;;;0.20;;
46925;SDS011;32667;48.248;-1.700;2023-02-15T12:33:13;0.20;;;0.20;;
46925;SDS011;32667;48.248;-1.700;2023-02-15T12:35:45;0.20;;;0.20;;
46925;SDS011;32667;48.248;-1.700;2023-02-15T12:40:39;0.20;;;0.20;;
46925;SDS011;32667;48.248;-1.700;2023-02-15T12:43:24;0.20;;;0.20;;
46925;SDS011;32667;48.248;-1.700;2023-02-15T12:49:04;0.20;;;0.20;;
46925;SDS011;32667;48.248;-1.700;2023-02-15T12:51:43;0.20;;;0.20;;
46925;SDS011;32667;48.248;-1.700;2023-02-15T12:56:57;0.20;;;0.20;;
46925;SDS011;32667;48.248;-1.700;2023-02-15T12:59:42;0.20;;;0.20;;
46925;SDS011;32667;48.248;-1.700;2023-02-15T13:02:31;0.20;;;0.20;;
46925;SDS011;32667;48.248;-1.700;2023-02-15T13:05:17;0.10;;;0.10;;
46925;SDS011;32667;48.248;-1.700;2023-02-15T13:07:49;0.20;;;0.20;;
46925;SDS011;32667;48.248;-1.700;2023-02-15T13:10:21;0.20;;;0.20;;
46925;SDS011;32667;48.248;-1.700;2023-02-15T13:12:53;0.10;;;0.10;;
46925;SDS011;32667;48.248;-1.700;2023-02-15T13:15:25;0.20;;;0.20;;
46925;SDS011;32667;48.248;-1.700;2023-02-15T13:18:01;0.10;;;0.10;;
46925;SDS011;32667;48.248;-1.700;2023-02-15T13:20:31;0.20;;;0.20;;
46925;SDS011;32667;48.248;-1.700;2023-02-15T13:23:03;0.20;;;0.20;;
46925;SDS011;32667;48.248;-1.700;2023-02-15T13:28:12;0.15;;;0.15;;
46925;SDS011;32667;48.248;-1.700;2023-02-15T13:30:42;0.20;;;0.20;;
46925;SDS011;32667;48.248;-1.700;2023-02-15T13:33:14;0.20;;;0.20;;
46925;SDS011;32667;48.248;-1.700;2023-02-15T13:38:20;0.20;;;0.20;;
46925;SDS011;32667;48.248;-1.700;2023-02-15T13:41:03;0.15;;;0.15;;
46925;SDS011;32667;48.248;-1.700;2023-02-15T13:51:57;0.20;;;0.20;;
46925;SDS011;32667;48.248;-1.700;2023-02-15T13:54:33;0.20;;;0.20;;
46925;SDS011;32667;48.248;-1.700;2023-02-15T14:00:40;0.20;;;0.20;;
46925;SDS011;32667;48.248;-1.700;2023-02-15T14:06:24;0.15;;;0.15;;
46925;SDS011;32667;48.248;-1.700;2023-02-15T14:15:06;0.20;;;0.20;;
46925;SDS011;32667;48.248;-1.700;2023-02-15T14:17:45;0.15;;;0.15;;
46925;SDS011;32667;48.248;-1.700;2023-02-15T14:31:34;0.10;;;0.10;;
46925;SDS011;32667;48.248;-1.700;2023-02-15T14:34:07;0.10;;;0.10;;
46925;SDS011;32667;48.248;-1.700;2023-02-15T14:36:50;0.10;;;0.10;;
46925;SDS011;32667;48.248;-1.700;2023-02-15T14:42:32;0.10;;;0.10;;
46925;SDS011;32667;48.248;-1.700;2023-02-15T14:47:44;0.10;;;0.10;;
46925;SDS011;32667;48.248;-1.700;2023-02-15T14:50:38;0.10;;;0.10;;
46925;SDS011;32667;48.248;-1.700;2023-02-15T15:01:15;0.10;;;0.10;;
46925;SDS011;32667;48.248;-1.700;2023-02-15T15:03:48;0.10;;;0.10;;
46925;SDS011;32667;48.248;-1.700;2023-02-15T15:06:40;0.20;;;0.20;;
46925;SDS011;32667;48.248;-1.700;2023-02-15T15:09:14;0.10;;;0.10;;
46925;SDS011;32667;48.248;-1.700;2023-02-15T15:11:50;0.10;;;0.10;;
46925;SDS011;32667;48.248;-1.700;2023-02-15T15:17:08;0.10;;;0.10;;
46925;SDS011;32667;48.248;-1.700;2023-02-15T15:22:18;0.20;;;0.20;;
46925;SDS011;32667;48.248;-1.700;2023-02-15T15:24:46;0.10;;;0.10;;
46925;SDS011;32667;48.248;-1.700;2023-02-15T15:38:22;0.20;;;0.20;;
46925;SDS011;32667;48.248;-1.700;2023-02-15T15:41:21;0.17;;;0.17;;
46925;SDS011;32667;48.248;-1.700;2023-02-15T15:44:02;0.13;;;0.13;;
46925;SDS011;32667;48.248;-1.700;2023-02-15T15:49:36;0.10;;;0.10;;
46925;SDS011;32667;48.248;-1.700;2023-02-15T15:52:08;0.10;;;0.10;;
46925;SDS011;32667;48.248;-1.700;2023-02-15T15:54:42;0.10;;;0.10;;
46925;SDS011;32667;48.248;-1.700;2023-02-15T16:02:52;0.15;;;0.15;;
46925;SDS011;32667;48.248;-1.700;2023-02-15T16:05:20;0.10;;;0.10;;
46925;SDS011;32667;48.248;-1.700;2023-02-15T16:07:46;0.10;;;0.10;;
46925;SDS011;32667;48.248;-1.700;2023-02-15T16:13:05;0.20;;;0.20;;
46925;SDS011;32667;48.248;-1.700;2023-02-15T16:15:42;0.15;;;0.15;;
46925;SDS011;32667;48.248;-1.700;2023-02-15T16:18:18;0.13;;;0.13;;
46925;SDS011;32667;48.248;-1.700;2023-02-15T16:20:57;0.10;;;0.10;;
46925;SDS011;32667;48.248;-1.700;2023-02-15T16:23:37;0.10;;;0.10;;
46925;SDS011;32667;48.248;-1.700;2023-02-15T16:26:35;0.20;;;0.20;;
46925;SDS011;32667;48.248;-1.700;2023-02-15T16:29:28;0.20;;;0.20;;
46925;SDS011;32667;48.248;-1.700;2023-02-15T16:32:20;0.10;;;0.10;;
46925;SDS011;32667;48.248;-1.700;2023-02-15T16:34:59;0.20;;;0.20;;
46925;SDS011;32667;48.248;-1.700;2023-02-15T16:37:28;0.10;;;0.10;;
46925;SDS011;32667;48.248;-1.700;2023-02-15T16:39:58;0.10;;;0.10;;
46925;SDS011;32667;48.248;-1.700;2023-02-15T16:42:24;0.10;;;0.10;;
46925;SDS011;32667;48.248;-1.700;2023-02-15T16:44:58;0.20;;;0.20;;
46925;SDS011;32667;48.248;-1.700;2023-02-15T16:47:29;0.20;;;0.20;;
46925;SDS011;32667;48.248;-1.700;2023-02-15T16:49:58;0.20;;;0.20;;
46925;SDS011;32667;48.248;-1.700;2023-02-15T16:52:36;0.10;;;0.10;;
46925;SDS011;32667;48.248;-1.700;2023-02-15T16:55:04;0.10;;;0.10;;
46925;SDS011;32667;48.248;-1.700;2023-02-15T16:57:34;0.10;;;0.10;;
46925;SDS011;32667;48.248;-1.700;2023-02-15T17:00:06;0.13;;;0.13;;
46925;SDS011;32667;48.248;-1.700;2023-02-15T17:02:58;0.20;;;0.20;;
46925;SDS011;32667;48.248;-1.700;2023-02-15T17:08:12;0.10;;;0.10;;
46925;SDS011;32667;48.248;-1.700;2023-02-15T17:13:37;0.20;;;0.20;;
46925;SDS011;32667;48.248;-1.700;2023-02-15T17:18:33;0.10;;;0.10;;
46925;SDS011;32667;48.248;-1.700;2023-02-15T17:21:54;0.10;;;0.10;;
46925;SDS011;32667;48.248;-1.700;2023-02-15T17:24:01;0.20;;;0.20;;
46925;SDS011;32667;48.248;-1.700;2023-02-15T17:26:30;0.17;;;0.17;;
46925;SDS011;32667;48.248;-1.700;2023-02-15T17:31:39;0.10;;;0.10;;
46925;SDS011;32667;48.248;-1.700;2023-02-15T17:34:05;0.10;;;0.10;;
46925;SDS011;32667;48.248;-1.700;2023-02-15T17:39:24;0.15;;;0.15;;
46925;SDS011;32667;48.248;-1.700;2023-02-15T17:41:51;0.10;;;0.10;;
46925;SDS011;32667;48.248;-1.700;2023-02-15T17:44:17;0.20;;;0.20;;
46925;SDS011;32667;48.248;-1.700;2023-02-15T17:46:46;0.20;;;0.20;;
46925;SDS011;32667;48.248;-1.700;2023-02-15T17:49:14;0.20;;;0.20;;
46925;SDS011;32667;48.248;-1.700;2023-02-15T17:51:48;0.20;;;0.20;;
46925;SDS011;32667;48.248;-1.700;2023-02-15T17:54:14;0.20;;;0.20;;
46925;SDS011;32667;48.248;-1.700;2023-02-15T17:57:00;0.17;;;0.17;;
46925;SDS011;32667;48.248;-1.700;2023-02-15T17:59:29;0.20;;;0.20;;
46925;SDS011;32667;48.248;-1.700;2023-02-15T18:01:55;0.10;;;0.10;;
46925;SDS011;32667;48.248;-1.700;2023-02-15T18:04:40;0.20;;;0.20;;
46925;SDS011;32667;48.248;-1.700;2023-02-15T18:07:25;0.10;;;0.10;;
46925;SDS011;32667;48.248;-1.700;2023-02-15T18:10:13;0.10;;;0.10;;
46925;SDS011;32667;48.248;-1.700;2023-02-15T18:12:59;0.20;;;0.20;;
46925;SDS011;32667;48.248;-1.700;2023-02-15T18:15:27;0.10;;;0.10;;
46925;SDS011;32667;48.248;-1.700;2023-02-15T18:17:54;0.10;;;0.10;;
46925;SDS011;32667;48.248;-1.700;2023-02-15T18:20:21;0.20;;;0.20;;
46925;SDS011;32667;48.248;-1.700;2023-02-15T18:22:51;0.20;;;0.20;;
46925;SDS011;32667;48.248;-1.700;2023-02-15T18:25:20;0.20;;;0.20;;
46925;SDS011;32667;48.248;-1.700;2023-02-15T18:27:49;0.20;;;0.20;;
46925;SDS011;32667;48.248;-1.700;2023-02-15T18:30:18;0.20;;;0.20;;
46925;SDS011;32667;48.248;-1.700;2023-02-15T18:32:46;0.20;;;0.20;;
46925;SDS011;32667;48.248;-1.700;2023-02-15T18:35:15;0.17;;;0.17;;
46925;SDS011;32667;48.248;-1.700;2023-02-15T18:37:47;0.20;;;0.20;;
46925;SDS011;32667;48.248;-1.700;2023-02-15T18:40:16;0.10;;;0.10;;